createdAt,value
2018-10-21T00:00:27.949Z,0
2018-10-21T00:01:27.429Z,0
2018-10-21T00:02:25.290Z,0
2018-10-21T00:03:24.703Z,0
2018-10-21T00:04:24.474Z,0
2018-10-21T00:05:23.404Z,0
2018-10-21T00:06:24.944Z,0
2018-10-21T00:07:24.442Z,0
2018-10-21T00:08:23.022Z,0
2018-10-21T00:09:22.532Z,0
2018-10-21T00:10:22.779Z,0
2018-10-21T00:11:22.024Z,0
2018-10-21T00:12:20.554Z,0
2018-10-21T00:13:21.568Z,0
2018-10-21T00:14:21.443Z,0
2018-10-21T00:15:20.027Z,0
2018-10-21T00:16:24.448Z,0
2018-10-21T00:17:24.940Z,0
2018-10-21T00:18:25.948Z,0
2018-10-21T00:19:25.034Z,0
2018-10-21T00:20:27.353Z,0
2018-10-21T00:23:03.639Z,0
2018-10-21T00:24:03.176Z,0
2018-10-21T00:25:03.133Z,0
2018-10-21T00:26:03.269Z,0
2018-10-21T00:27:03.045Z,0
2018-10-21T00:28:00.891Z,0
2018-10-21T00:29:01.016Z,0
2018-10-21T00:30:05.021Z,0
2018-10-21T00:31:03.562Z,0
2018-10-21T00:32:02.185Z,0
2018-10-21T00:33:00.778Z,0
2018-10-21T00:34:01.459Z,0
2018-10-21T00:35:02.023Z,0
2018-10-21T00:36:03.512Z,0
2018-10-21T00:37:02.842Z,0
2018-10-21T00:38:01.924Z,0
2018-10-21T00:39:02.038Z,0
2018-10-21T00:40:03.020Z,0
2018-10-21T00:41:00.857Z,0
2018-10-21T00:42:01.130Z,0
2018-10-21T00:43:02.512Z,0
2018-10-21T00:44:01.080Z,0
2018-10-21T00:45:02.090Z,0
2018-10-21T00:46:03.226Z,0
2018-10-21T00:47:02.875Z,0
2018-10-21T00:48:01.379Z,0
2018-10-21T00:49:00.795Z,0
2018-10-21T00:50:01.200Z,0
2018-10-21T00:51:01.046Z,0
2018-10-21T00:52:01.023Z,0
2018-10-21T00:52:59.946Z,0
2018-10-21T00:54:01.033Z,0
2018-10-21T00:54:58.682Z,0
2018-10-21T00:55:58.699Z,0
2018-10-21T00:59:05.836Z,0
2018-10-21T01:00:05.249Z,0
2018-10-21T01:01:04.604Z,0
2018-10-21T01:02:03.691Z,0
2018-10-21T01:03:02.292Z,0
2018-10-21T01:04:00.852Z,0
2018-10-21T01:05:02.213Z,0
2018-10-21T01:06:02.181Z,0
2018-10-21T01:07:00.137Z,0
2018-10-21T01:08:01.175Z,0
2018-10-21T01:08:59.916Z,0
2018-10-21T01:09:58.950Z,0
2018-10-21T01:10:57.453Z,0
2018-10-21T01:11:56.610Z,0
2018-10-21T01:12:57.182Z,0
2018-10-21T01:13:56.687Z,0
2018-10-21T01:14:56.076Z,0
2018-10-21T01:15:55.677Z,0
2018-10-21T01:18:36.947Z,0
2018-10-21T01:19:40.179Z,0
2018-10-21T01:20:40.955Z,0
2018-10-21T01:21:39.417Z,0
2018-10-21T01:22:38.690Z,0
2018-10-21T01:23:38.181Z,0
2018-10-21T01:24:36.734Z,0
2018-10-21T01:25:36.782Z,0
2018-10-21T01:26:36.761Z,0
2018-10-21T01:27:36.189Z,0
2018-10-21T01:28:38.263Z,0
2018-10-21T01:29:38.181Z,0
2018-10-21T01:30:39.456Z,0
2018-10-21T01:31:38.762Z,0
2018-10-21T01:32:38.183Z,0
2018-10-21T01:33:38.181Z,0
2018-10-21T01:34:36.688Z,0
2018-10-21T01:35:34.632Z,0
2018-10-21T01:36:33.516Z,0
2018-10-21T01:37:31.925Z,0
2018-10-21T01:38:39.178Z,0
2018-10-21T01:39:37.019Z,0
2018-10-21T01:40:35.701Z,0
2018-10-21T01:41:35.691Z,0
2018-10-21T01:42:33.385Z,0
2018-10-21T01:43:35.762Z,0
2018-10-21T01:44:34.979Z,0
2018-10-21T01:45:34.180Z,0
2018-10-21T01:46:33.429Z,0
2018-10-21T01:47:33.473Z,0
2018-10-21T01:48:34.183Z,0
2018-10-21T01:49:34.350Z,0
2018-10-21T01:50:35.679Z,0
2018-10-21T01:51:36.195Z,0
2018-10-21T01:53:55.241Z,0
2018-10-21T01:54:52.443Z,0
2018-10-21T01:55:51.677Z,0
2018-10-21T01:56:51.761Z,0
2018-10-21T01:57:50.287Z,0
2018-10-21T01:58:51.249Z,0
2018-10-21T01:59:51.244Z,0
2018-10-21T02:00:51.375Z,0
2018-10-21T02:01:49.971Z,0
2018-10-21T02:02:49.723Z,0
2018-10-21T02:03:49.146Z,0
2018-10-21T02:04:49.261Z,0
2018-10-21T02:05:48.686Z,0
2018-10-21T02:06:47.880Z,0
2018-10-21T02:09:36.292Z,0
2018-10-21T02:10:35.311Z,0
2018-10-21T02:11:34.989Z,0
2018-10-21T02:12:34.293Z,0
2018-10-21T02:13:32.149Z,0
2018-10-21T02:14:33.324Z,0
2018-10-21T02:15:32.803Z,0
2018-10-21T02:16:30.964Z,0
2018-10-21T02:17:31.297Z,0
2018-10-21T02:18:29.317Z,0
2018-10-21T02:19:29.880Z,0
2018-10-21T02:20:30.294Z,0
2018-10-21T02:21:28.464Z,0
2018-10-21T02:22:28.798Z,0
2018-10-21T02:23:29.306Z,0
2018-10-21T02:24:30.102Z,0
2018-10-21T02:25:28.636Z,0
2018-10-21T02:26:29.722Z,0
2018-10-21T02:27:29.712Z,0
2018-10-21T02:28:29.834Z,0
2018-10-21T02:29:29.809Z,0
2018-10-21T02:30:27.572Z,0
2018-10-21T02:31:30.307Z,0
2018-10-21T02:32:29.588Z,0
2018-10-21T02:33:28.999Z,0
2018-10-21T02:34:28.802Z,0
2018-10-21T02:35:26.805Z,0
2018-10-21T02:36:27.303Z,0
2018-10-21T02:37:26.313Z,0
2018-10-21T02:38:24.889Z,0
2018-10-21T02:39:24.111Z,0
2018-10-21T02:40:22.638Z,0
2018-10-21T02:41:22.394Z,0
2018-10-21T02:42:22.316Z,0
2018-10-21T02:43:20.033Z,0
2018-10-21T02:44:20.270Z,0
2018-10-21T02:45:19.462Z,0
2018-10-21T02:46:18.075Z,0
2018-10-21T02:47:18.816Z,0
2018-10-21T02:48:21.335Z,0
2018-10-21T02:49:21.822Z,0
2018-10-21T02:50:21.818Z,0
2018-10-21T02:51:22.312Z,0
2018-10-21T02:52:21.007Z,0
2018-10-21T02:53:20.162Z,0
2018-10-21T02:54:19.318Z,0
2018-10-21T02:55:20.319Z,0
2018-10-21T02:56:20.399Z,0
2018-10-21T02:57:18.996Z,0
2018-10-21T02:58:18.829Z,0
2018-10-21T02:59:17.460Z,0
2018-10-21T03:00:17.818Z,0
2018-10-21T03:01:16.482Z,0
2018-10-21T03:02:16.475Z,0
2018-10-21T03:03:17.477Z,0
2018-10-21T03:04:16.229Z,0
2018-10-21T03:05:19.812Z,0
2018-10-21T03:06:19.333Z,0
2018-10-21T03:07:17.915Z,0
2018-10-21T03:08:19.312Z,0
2018-10-21T03:09:18.714Z,0
2018-10-21T03:10:19.812Z,0
2018-10-21T03:11:19.142Z,0
2018-10-21T03:13:37.188Z,0
2018-10-21T03:14:38.224Z,0
2018-10-21T03:15:38.281Z,0
2018-10-21T03:16:38.376Z,0
2018-10-21T03:17:37.415Z,0
2018-10-21T03:18:35.976Z,0
2018-10-21T03:19:34.503Z,0
2018-10-21T03:20:35.189Z,0
2018-10-21T03:21:35.711Z,0
2018-10-21T03:22:34.699Z,0
2018-10-21T03:23:34.800Z,0
2018-10-21T03:24:33.338Z,0
2018-10-21T03:25:32.701Z,0
2018-10-21T03:26:32.203Z,0
2018-10-21T03:27:32.196Z,0
2018-10-21T03:28:30.632Z,0
2018-10-21T03:29:34.705Z,0
2018-10-21T03:30:33.207Z,0
2018-10-21T03:31:31.201Z,0
2018-10-21T03:32:29.840Z,0
2018-10-21T03:33:28.411Z,0
2018-10-21T03:34:27.504Z,0
2018-10-21T03:35:26.066Z,0
2018-10-21T03:36:25.413Z,0
2018-10-21T03:37:26.208Z,0
2018-10-21T03:38:28.560Z,0
2018-10-21T03:39:27.735Z,0
2018-10-21T03:40:27.710Z,0
2018-10-21T03:41:26.242Z,0
2018-10-21T03:42:25.707Z,0
2018-10-21T03:43:25.322Z,0
2018-10-21T03:44:25.214Z,0
2018-10-21T03:45:23.725Z,0
2018-10-21T03:47:40.546Z,0
2018-10-21T03:48:39.738Z,0
2018-10-21T03:49:38.256Z,0
2018-10-21T03:50:36.846Z,0
2018-10-21T03:53:45.507Z,0
2018-10-21T03:54:45.338Z,0
2018-10-21T03:55:43.942Z,0
2018-10-21T03:56:44.339Z,0
2018-10-21T03:57:42.838Z,0
2018-10-21T03:58:41.212Z,0
2018-10-21T03:59:45.334Z,0
2018-10-21T04:00:44.334Z,0
2018-10-21T04:01:44.340Z,0
2018-10-21T04:04:45.368Z,0
2018-10-21T04:05:44.941Z,0
2018-10-21T04:06:44.446Z,0
2018-10-21T04:07:44.936Z,0
2018-10-21T04:08:44.074Z,0
2018-10-21T04:09:42.583Z,0
2018-10-21T04:10:41.892Z,0
2018-10-21T04:11:42.569Z,0
2018-10-21T04:12:42.620Z,0
2018-10-21T04:13:42.939Z,0
2018-10-21T04:14:41.951Z,0
2018-10-21T04:15:40.483Z,0
2018-10-21T04:16:40.445Z,0
2018-10-21T04:17:38.386Z,0
2018-10-21T04:18:36.891Z,0
2018-10-21T04:19:37.210Z,0
2018-10-21T04:20:36.954Z,0
2018-10-21T04:21:35.687Z,0
2018-10-21T04:22:34.948Z,0
2018-10-21T04:23:35.035Z,0
2018-10-21T04:24:35.947Z,0
2018-10-21T04:25:34.307Z,0
2018-10-21T04:26:33.404Z,0
2018-10-21T04:27:33.694Z,0
2018-10-21T04:28:32.211Z,0
2018-10-21T04:29:31.449Z,0
2018-10-21T04:30:29.816Z,0
2018-10-21T04:31:32.086Z,0
2018-10-21T04:32:30.591Z,0
2018-10-21T04:33:30.565Z,0
2018-10-21T04:34:30.877Z,0
2018-10-21T04:35:29.779Z,0
2018-10-21T04:36:29.620Z,0
2018-10-21T04:37:29.630Z,0
2018-10-21T04:38:28.146Z,0
2018-10-21T04:39:28.123Z,0
2018-10-21T04:40:28.947Z,0
2018-10-21T04:41:28.458Z,0
2018-10-21T04:42:27.948Z,0
2018-10-21T04:43:26.458Z,0
2018-10-21T04:44:25.069Z,0
2018-10-21T04:45:23.584Z,0
2018-10-21T04:46:23.960Z,0
2018-10-21T04:47:24.458Z,0
2018-10-21T04:48:22.636Z,0
2018-10-21T04:49:21.955Z,0
2018-10-21T04:50:20.492Z,0
2018-10-21T04:51:19.076Z,0
2018-10-21T04:52:17.727Z,0
2018-10-21T04:53:17.656Z,0
2018-10-21T04:54:17.950Z,0
2018-10-21T04:55:16.126Z,0
2018-10-21T04:56:15.622Z,0
2018-10-21T04:57:14.147Z,0
2018-10-21T04:58:13.562Z,0
2018-10-21T04:59:16.468Z,0
2018-10-21T05:00:15.770Z,0
2018-10-21T05:01:14.954Z,0
2018-10-21T05:02:13.290Z,0
2018-10-21T05:03:12.954Z,0
2018-10-21T05:04:10.580Z,0
2018-10-21T05:05:12.457Z,0
2018-10-21T05:06:13.468Z,0
2018-10-21T05:07:12.011Z,0
2018-10-21T05:08:11.962Z,0
2018-10-21T05:09:10.487Z,0
2018-10-21T05:10:10.606Z,0
2018-10-21T05:11:11.373Z,0
2018-10-21T05:12:10.545Z,0
2018-10-21T05:13:10.463Z,0
2018-10-21T05:14:08.288Z,0
2018-10-21T05:15:10.507Z,0
2018-10-21T05:16:10.931Z,0
2018-10-21T05:17:09.370Z,0
2018-10-21T05:18:08.959Z,0
2018-10-21T05:19:08.460Z,0
2018-10-21T05:20:06.581Z,0
2018-10-21T05:21:07.972Z,0
2018-10-21T05:22:05.869Z,0
2018-10-21T05:23:07.971Z,0
2018-10-21T05:24:09.050Z,0
2018-10-21T05:25:08.673Z,0
2018-10-21T05:26:15.793Z,0
2018-10-21T05:27:15.719Z,0
2018-10-21T05:28:14.320Z,0
2018-10-21T05:29:14.215Z,0
2018-10-21T05:30:12.738Z,4
2018-10-21T05:31:16.661Z,0
2018-10-21T05:32:15.825Z,0
2018-10-21T05:33:14.360Z,4
2018-10-21T05:34:14.371Z,0
2018-10-21T05:35:13.757Z,4
2018-10-21T05:36:13.743Z,4
2018-10-21T05:39:22.339Z,8
2018-10-21T05:40:20.619Z,8
2018-10-21T05:44:14.152Z,16
2018-10-21T05:45:17.947Z,16
2018-10-21T05:46:17.114Z,20
2018-10-21T05:47:17.520Z,24
2018-10-21T05:48:16.459Z,24
2018-10-21T05:49:14.936Z,28
2018-10-21T05:50:17.963Z,32
2018-10-21T05:51:16.117Z,36
2018-10-21T05:52:15.469Z,40
2018-10-21T05:53:15.200Z,44
2018-10-21T05:54:16.454Z,48
2018-10-21T05:55:15.165Z,52
2018-10-21T05:56:14.952Z,56
2018-10-21T05:57:14.451Z,60
2018-10-21T05:58:13.088Z,68
2018-10-21T05:59:15.410Z,72
2018-10-21T06:00:20.536Z,76
2018-10-21T06:01:19.213Z,80
2018-10-21T06:02:17.814Z,88
2018-10-21T06:05:04.954Z,100
2018-10-21T06:06:04.371Z,108
2018-10-21T06:07:04.947Z,112
2018-10-21T06:08:04.946Z,116
2018-10-21T06:09:06.619Z,128
2018-10-21T06:10:06.468Z,128
2018-10-21T06:11:05.068Z,136
2018-10-21T06:12:05.971Z,140
2018-10-21T06:13:05.457Z,148
2018-10-21T06:14:03.519Z,152
2018-10-21T06:15:03.522Z,160
2018-10-21T06:16:02.109Z,164
2018-10-21T06:17:02.946Z,172
2018-10-21T06:18:02.545Z,180
2018-10-21T06:19:01.006Z,188
2018-10-21T06:20:02.462Z,188
2018-10-21T06:21:00.957Z,192
2018-10-21T06:22:00.463Z,200
2018-10-21T06:23:00.924Z,204
2018-10-21T06:23:59.516Z,212
2018-10-21T06:26:41.472Z,232
2018-10-21T06:27:41.990Z,240
2018-10-21T06:28:40.726Z,244
2018-10-21T06:29:42.967Z,252
2018-10-21T06:30:41.502Z,256
2018-10-21T06:31:42.651Z,272
2018-10-21T06:32:41.833Z,288
2018-10-21T06:33:41.039Z,312
2018-10-21T06:34:41.965Z,336
2018-10-21T06:35:41.204Z,364
2018-10-21T06:36:41.006Z,392
2018-10-21T06:37:39.734Z,408
2018-10-21T06:38:39.469Z,412
2018-10-21T06:39:36.788Z,412
2018-10-21T06:40:35.943Z,420
2018-10-21T06:41:37.045Z,424
2018-10-21T06:42:35.624Z,424
2018-10-21T06:43:36.969Z,428
2018-10-21T06:44:34.612Z,432
2018-10-21T06:45:34.092Z,444
2018-10-21T06:46:32.563Z,464
2018-10-21T06:47:33.658Z,476
2018-10-21T06:48:32.289Z,492
2018-10-21T06:49:32.457Z,508
2018-10-21T06:50:32.117Z,520
2018-10-21T06:51:31.963Z,524
2018-10-21T06:52:30.957Z,528
2018-10-21T06:53:30.984Z,532
2018-10-21T06:54:31.121Z,536
2018-10-21T06:55:29.727Z,536
2018-10-21T06:56:30.338Z,548
2018-10-21T06:57:29.594Z,576
2018-10-21T06:58:27.476Z,600
2018-10-21T06:59:27.869Z,616
2018-10-21T07:00:26.398Z,620
2018-10-21T07:01:24.999Z,628
2018-10-21T07:02:24.961Z,676
2018-10-21T07:03:24.960Z,688
2018-10-21T07:04:26.518Z,676
2018-10-21T07:05:28.478Z,672
2018-10-21T07:06:26.963Z,656
2018-10-21T07:09:35.191Z,680
2018-10-21T07:10:34.383Z,660
2018-10-21T07:11:34.349Z,624
2018-10-21T07:12:33.569Z,632
2018-10-21T07:13:32.186Z,644
2018-10-21T07:14:32.180Z,656
2018-10-21T07:15:30.297Z,636
2018-10-21T07:16:29.709Z,680
2018-10-21T07:17:30.190Z,700
2018-10-21T07:18:27.823Z,724
2018-10-21T07:19:27.561Z,744
2018-10-21T07:20:27.188Z,732
2018-10-21T07:21:25.863Z,704
2018-10-21T07:22:26.690Z,668
2018-10-21T07:23:24.952Z,576
2018-10-21T07:24:27.197Z,560
2018-10-21T07:25:25.734Z,560
2018-10-21T07:26:24.241Z,552
2018-10-21T07:27:25.014Z,564
2018-10-21T07:28:25.762Z,564
2018-10-21T07:29:24.280Z,568
2018-10-21T07:30:24.307Z,576
2018-10-21T07:31:23.699Z,600
2018-10-21T07:32:22.188Z,624
2018-10-21T07:33:22.723Z,652
2018-10-21T07:34:20.537Z,680
2018-10-21T07:35:21.441Z,700
2018-10-21T07:36:20.017Z,696
2018-10-21T07:37:27.688Z,744
2018-10-21T07:38:26.694Z,788
2018-10-21T07:39:25.190Z,812
2018-10-21T07:40:27.696Z,832
2018-10-21T07:41:26.183Z,828
2018-10-21T07:42:29.716Z,828
2018-10-21T07:43:29.196Z,836
2018-10-21T07:44:31.694Z,852
2018-10-21T07:45:30.693Z,872
2018-10-21T07:46:28.617Z,884
2018-10-21T07:47:27.244Z,892
2018-10-21T07:48:26.628Z,900
2018-10-21T07:49:25.718Z,912
2018-10-21T07:50:24.824Z,916
2018-10-21T07:51:29.866Z,928
2018-10-21T07:52:29.243Z,928
2018-10-21T07:53:29.197Z,936
2018-10-21T07:54:44.193Z,896
2018-10-21T07:55:44.289Z,892
2018-10-21T07:56:44.814Z,928
2018-10-21T07:57:44.203Z,980
2018-10-21T07:58:44.403Z,992
2018-10-21T07:59:45.338Z,992
2018-10-21T08:00:44.695Z,996
2018-10-21T08:01:44.107Z,1004
2018-10-21T08:02:43.693Z,988
2018-10-21T08:03:45.362Z,968
2018-10-21T08:04:45.216Z,1004
2018-10-21T08:05:43.938Z,996
2018-10-21T08:06:44.718Z,976
2018-10-21T08:07:51.802Z,948
2018-10-21T08:08:51.586Z,988
2018-10-21T08:09:52.263Z,972
2018-10-21T08:10:53.244Z,956
2018-10-21T08:11:51.709Z,948
2018-10-21T08:12:50.371Z,940
2018-10-21T08:13:48.949Z,956
2018-10-21T08:14:48.271Z,928
2018-10-21T08:15:48.729Z,928
2018-10-21T08:16:48.483Z,912
2018-10-21T08:17:48.841Z,956
2018-10-21T08:18:52.709Z,948
2018-10-21T08:19:51.712Z,964
2018-10-21T08:20:58.699Z,948
2018-10-21T08:21:57.762Z,968
2018-10-21T08:22:55.006Z,952
2018-10-21T08:23:57.231Z,932
2018-10-21T08:25:03.277Z,956
2018-10-21T08:26:02.640Z,976
2018-10-21T08:27:02.259Z,988
2018-10-21T08:28:00.904Z,988
2018-10-21T08:29:01.712Z,972
2018-10-21T08:30:00.223Z,944
2018-10-21T08:30:59.203Z,908
2018-10-21T08:32:00.774Z,932
2018-10-21T08:33:01.054Z,956
2018-10-21T08:34:00.364Z,980
2018-10-21T08:34:59.826Z,984
2018-10-21T08:38:03.736Z,1000
2018-10-21T08:39:04.119Z,1008
2018-10-21T08:40:04.389Z,1008
2018-10-21T08:41:02.319Z,1004
2018-10-21T08:42:03.356Z,1000
2018-10-21T08:43:00.926Z,984
2018-10-21T08:44:01.036Z,972
2018-10-21T08:45:02.781Z,944
2018-10-21T08:46:01.436Z,948
2018-10-21T08:47:02.858Z,972
2018-10-21T08:48:02.866Z,960
2018-10-21T08:49:04.868Z,952
2018-10-21T08:50:02.969Z,952
2018-10-21T08:51:01.352Z,948
2018-10-21T08:52:02.364Z,960
2018-10-21T08:53:02.350Z,972
2018-10-21T08:54:01.037Z,972
2018-10-21T08:55:01.371Z,952
2018-10-21T08:55:59.248Z,968
2018-10-21T08:56:58.365Z,968
2018-10-21T08:57:57.969Z,972
2018-10-21T08:58:57.296Z,972
2018-10-21T08:59:57.399Z,960
2018-10-21T09:00:56.050Z,964
2018-10-21T09:01:54.552Z,1008
2018-10-21T09:02:53.059Z,1008
2018-10-21T09:03:52.209Z,1012
2018-10-21T09:04:50.748Z,1012
2018-10-21T09:05:50.459Z,1016
2018-10-21T09:06:49.062Z,1028
2018-10-21T09:07:49.375Z,952
2018-10-21T09:08:49.363Z,1060
2018-10-21T09:09:48.366Z,1024
2018-10-21T09:10:48.973Z,1008
2018-10-21T09:11:52.380Z,992
2018-10-21T09:12:52.848Z,972
2018-10-21T09:13:51.366Z,996
2018-10-21T09:14:49.875Z,1016
2018-10-21T09:15:48.675Z,1008
2018-10-21T09:16:47.471Z,1008
2018-10-21T09:17:50.350Z,972
2018-10-21T09:18:48.204Z,996
2018-10-21T09:19:48.351Z,1000
2018-10-21T09:20:48.867Z,1032
2018-10-21T09:21:46.538Z,1040
2018-10-21T09:22:46.574Z,1036
2018-10-21T09:23:46.761Z,1036
2018-10-21T09:24:48.352Z,1044
2018-10-21T09:25:46.871Z,1036
2018-10-21T09:26:45.428Z,1040
2018-10-21T09:27:44.652Z,1052
2018-10-21T09:28:43.863Z,1032
2018-10-21T09:29:43.361Z,1024
2018-10-21T09:30:42.855Z,1032
2018-10-21T09:31:43.433Z,1040
2018-10-21T09:32:43.362Z,1044
2018-10-21T09:33:43.364Z,1040
2018-10-21T09:34:42.874Z,1052
2018-10-21T09:35:44.360Z,1056
2018-10-21T09:36:41.650Z,1068
2018-10-21T09:37:46.360Z,1064
2018-10-21T09:38:47.372Z,1044
2018-10-21T09:41:04.590Z,1076
2018-10-21T09:42:03.762Z,1084
2018-10-21T09:43:02.291Z,1080
2018-10-21T09:44:01.328Z,1092
2018-10-21T09:45:04.567Z,1076
2018-10-21T09:46:01.208Z,1088
2018-10-21T09:47:01.163Z,1092
2018-10-21T09:48:01.057Z,1052
2018-10-21T09:49:00.194Z,1092
2018-10-21T09:49:58.733Z,1088
2018-10-21T09:50:59.730Z,1084
2018-10-21T09:51:58.317Z,1076
2018-10-21T09:53:00.574Z,1084
2018-10-21T09:54:00.120Z,1080
2018-10-21T09:54:59.568Z,1052
2018-10-21T09:55:58.580Z,1048
2018-10-21T09:56:57.159Z,1052
2018-10-21T09:57:58.121Z,1044
2018-10-21T09:58:56.663Z,1048
2018-10-21T09:59:56.621Z,1040
2018-10-21T10:00:55.249Z,1068
2018-10-21T10:01:56.094Z,1080
2018-10-21T10:02:57.298Z,1080
2018-10-21T10:03:56.720Z,1084
2018-10-21T10:04:56.195Z,1088
2018-10-21T10:05:55.381Z,1080
2018-10-21T10:06:55.609Z,1060
2018-10-21T10:07:55.622Z,1084
2018-10-21T10:08:53.821Z,1096
2018-10-21T10:09:56.654Z,1096
2018-10-21T10:10:56.087Z,1100
2018-10-21T10:11:56.588Z,1108
2018-10-21T10:12:57.080Z,1104
2018-10-21T10:13:55.658Z,1112
2018-10-21T10:14:55.575Z,1112
2018-10-21T10:17:39.178Z,1116
2018-10-21T10:20:21.155Z,1116
2018-10-21T10:21:18.944Z,1116
2018-10-21T10:22:21.645Z,1120
2018-10-21T10:23:21.183Z,1124
2018-10-21T10:24:22.664Z,1124
2018-10-21T10:25:21.448Z,1132
2018-10-21T10:26:23.651Z,1128
2018-10-21T10:27:22.656Z,1128
2018-10-21T10:28:29.930Z,1128
2018-10-21T10:48:27.152Z,1116
2018-10-21T10:49:26.651Z,1112
2018-10-21T10:50:26.593Z,1112
2018-10-21T10:51:26.167Z,1108
2018-10-21T10:52:26.662Z,1112
2018-10-21T10:55:06.686Z,1096
2018-10-21T10:56:07.156Z,1100
2018-10-21T10:57:05.679Z,1092
2018-10-21T10:58:05.846Z,1092
2018-10-21T10:59:05.169Z,1084
2018-10-21T11:00:03.872Z,1084
2018-10-21T11:01:02.533Z,1080
2018-10-21T11:02:01.463Z,1072
2018-10-21T11:03:02.663Z,1072
2018-10-21T11:04:01.336Z,1072
2018-10-21T11:05:00.681Z,1064
2018-10-21T11:06:00.219Z,1060
2018-10-21T11:07:02.176Z,1048
2018-10-21T11:08:00.671Z,1060
2018-10-21T11:09:00.862Z,1060
2018-10-21T11:10:01.228Z,1056
2018-10-21T11:11:01.383Z,1052
2018-10-21T11:12:03.816Z,1048
2018-10-21T11:13:04.755Z,1052
2018-10-21T11:14:02.775Z,1048
2018-10-21T11:15:01.857Z,1044
2018-10-21T11:16:00.496Z,1044
2018-10-21T11:16:59.032Z,1044
2018-10-21T11:17:58.599Z,1036
2018-10-21T11:18:58.182Z,1036
2018-10-21T11:19:57.686Z,1032
2018-10-21T11:20:56.244Z,1024
2018-10-21T11:21:54.905Z,1020
2018-10-21T11:22:56.970Z,1020
2018-10-21T11:23:57.706Z,1012
2018-10-21T11:24:57.216Z,1008
2018-10-21T11:25:54.617Z,1000
2018-10-21T11:26:54.168Z,1000
2018-10-21T11:27:52.280Z,996
2018-10-21T11:28:52.693Z,992
2018-10-21T11:29:51.264Z,988
2018-10-21T11:30:51.387Z,968
2018-10-21T11:31:50.776Z,968
2018-10-21T11:32:49.978Z,972
2018-10-21T11:33:49.373Z,972
2018-10-21T11:34:48.837Z,972
2018-10-21T11:35:48.242Z,968
2018-10-21T11:36:46.877Z,976
2018-10-21T11:37:45.363Z,972
2018-10-21T11:38:46.342Z,968
2018-10-21T11:39:45.710Z,972
2018-10-21T11:40:44.860Z,960
2018-10-21T11:41:43.978Z,960
2018-10-21T11:42:44.181Z,956
2018-10-21T11:43:42.693Z,952
2018-10-21T11:44:40.444Z,948
2018-10-21T11:45:41.087Z,944
2018-10-21T11:46:40.188Z,940
2018-10-21T11:47:41.704Z,940
2018-10-21T11:48:39.866Z,932
2018-10-21T11:49:40.712Z,928
2018-10-21T11:50:41.826Z,920
2018-10-21T11:51:41.188Z,920
2018-10-21T11:52:39.911Z,916
2018-10-21T11:53:39.326Z,908
2018-10-21T11:54:38.032Z,908
2018-10-21T11:55:36.624Z,900
2018-10-21T11:56:35.768Z,900
2018-10-21T11:57:36.189Z,888
2018-10-21T11:58:36.970Z,888
2018-10-21T11:59:35.940Z,884
2018-10-21T12:00:36.187Z,892
2018-10-21T12:01:35.704Z,872
2018-10-21T12:02:34.586Z,868
2018-10-21T12:03:33.701Z,860
2018-10-21T12:04:33.181Z,860
2018-10-21T12:05:31.593Z,852
2018-10-21T12:06:30.872Z,856
2018-10-21T12:07:30.163Z,856
2018-10-21T12:08:31.484Z,844
2018-10-21T12:09:32.556Z,852
2018-10-21T12:10:31.046Z,836
2018-10-21T12:11:31.694Z,844
2018-10-21T12:12:29.821Z,840
2018-10-21T12:13:29.687Z,836
2018-10-21T12:14:28.700Z,832
2018-10-21T12:15:26.563Z,832
2018-10-21T12:16:26.718Z,828
2018-10-21T12:17:24.678Z,828
2018-10-21T12:18:25.184Z,824
2018-10-21T12:19:24.736Z,824
2018-10-21T12:20:25.392Z,836
2018-10-21T12:21:24.313Z,840
2018-10-21T12:22:23.853Z,824
2018-10-21T12:23:22.417Z,828
2018-10-21T12:24:22.206Z,824
2018-10-21T12:25:21.368Z,828
2018-10-21T12:26:19.012Z,824
2018-10-21T12:27:20.687Z,832
2018-10-21T12:28:19.282Z,824
2018-10-21T12:29:17.889Z,836
2018-10-21T12:30:16.364Z,836
2018-10-21T12:31:15.797Z,824
2018-10-21T12:32:14.727Z,824
2018-10-21T12:33:15.093Z,824
2018-10-21T12:34:14.321Z,824
2018-10-21T12:35:12.901Z,828
2018-10-21T12:36:13.021Z,828
2018-10-21T12:37:13.934Z,824
2018-10-21T12:38:12.329Z,828
2018-10-21T12:39:10.916Z,832
2018-10-21T12:40:10.291Z,832
2018-10-21T12:41:08.695Z,828
2018-10-21T12:42:07.986Z,828
2018-10-21T12:43:08.268Z,828
2018-10-21T12:44:07.473Z,824
2018-10-21T12:45:07.196Z,816
2018-10-21T12:46:04.597Z,828
2018-10-21T12:47:05.593Z,828
2018-10-21T12:48:08.974Z,836
2018-10-21T12:49:08.242Z,824
2018-10-21T12:50:06.626Z,828
2018-10-21T12:51:07.704Z,824
2018-10-21T12:52:06.271Z,832
2018-10-21T12:53:06.303Z,828
2018-10-21T12:54:04.756Z,828
2018-10-21T12:55:03.456Z,844
2018-10-21T12:56:05.748Z,832
2018-10-21T12:57:03.741Z,832
2018-10-21T12:58:02.305Z,836
2018-10-21T12:59:02.250Z,840
2018-10-21T13:00:02.260Z,828
2018-10-21T13:01:00.490Z,832
2018-10-21T13:01:59.019Z,832
2018-10-21T13:02:57.753Z,832
2018-10-21T13:03:58.100Z,828
2018-10-21T13:04:56.601Z,828
2018-10-21T13:05:57.719Z,832
2018-10-21T13:06:57.778Z,832
2018-10-21T13:07:57.218Z,828
2018-10-21T13:08:56.521Z,832
2018-10-21T13:09:57.243Z,828
2018-10-21T13:10:56.219Z,824
2018-10-21T13:11:54.161Z,828
2018-10-21T13:12:53.880Z,832
2018-10-21T13:13:53.237Z,828
2018-10-21T13:14:57.720Z,836
2018-10-21T13:15:57.986Z,820
2018-10-21T13:16:57.197Z,828
2018-10-21T13:17:55.961Z,828
2018-10-21T13:18:55.743Z,824
2018-10-21T13:19:55.210Z,824
2018-10-21T13:20:55.232Z,816
2018-10-21T13:22:01.400Z,804
2018-10-21T13:23:01.422Z,820
2018-10-21T13:24:01.436Z,820
2018-10-21T13:25:01.441Z,820
2018-10-21T13:26:00.719Z,812
2018-10-21T13:26:59.754Z,816
2018-10-21T13:29:34.625Z,812
2018-10-21T13:30:33.174Z,812
2018-10-21T13:31:32.532Z,812
2018-10-21T13:32:31.854Z,816
2018-10-21T13:33:32.655Z,812
2018-10-21T13:34:31.987Z,804
2018-10-21T13:35:32.101Z,812
2018-10-21T13:36:31.887Z,808
2018-10-21T13:37:30.889Z,804
2018-10-21T13:38:30.606Z,808
2018-10-21T13:39:29.867Z,808
2018-10-21T13:40:29.912Z,812
2018-10-21T13:41:29.844Z,808
2018-10-21T13:42:28.948Z,804
2018-10-21T13:43:28.270Z,804
2018-10-21T13:44:27.350Z,804
2018-10-21T13:45:25.314Z,804
2018-10-21T13:46:24.463Z,800
2018-10-21T13:47:24.954Z,800
2018-10-21T13:48:29.243Z,804
2018-10-21T13:49:29.351Z,800
2018-10-21T13:50:31.350Z,800
2018-10-21T13:51:31.941Z,804
2018-10-21T13:52:31.472Z,796
2018-10-21T13:53:34.482Z,804
2018-10-21T13:54:33.863Z,792
2018-10-21T13:55:36.380Z,788
2018-10-21T13:56:36.983Z,792
2018-10-21T13:57:35.713Z,792
2018-10-21T13:58:35.896Z,784
2018-10-21T13:59:36.393Z,784
2018-10-21T14:00:36.067Z,784
2018-10-21T14:01:34.505Z,784
2018-10-21T14:02:34.521Z,784
2018-10-21T14:03:35.374Z,784
2018-10-21T14:04:33.821Z,788
2018-10-21T14:05:34.356Z,776
2018-10-21T14:06:32.367Z,776
2018-10-21T14:07:34.888Z,776
2018-10-21T14:08:37.355Z,768
2018-10-21T14:09:45.364Z,768
2018-10-21T14:10:43.890Z,768
2018-10-21T14:11:44.666Z,764
2018-10-21T14:12:44.398Z,764
2018-10-21T14:13:44.147Z,764
2018-10-21T14:14:45.420Z,760
2018-10-21T14:15:44.653Z,756
2018-10-21T14:16:45.042Z,756
2018-10-21T14:17:44.374Z,752
2018-10-21T14:18:43.003Z,752
2018-10-21T14:19:41.801Z,760
2018-10-21T14:20:43.362Z,748
2018-10-21T14:21:43.362Z,748
2018-10-21T14:22:41.562Z,748
2018-10-21T14:23:41.943Z,740
2018-10-21T14:24:42.984Z,744
2018-10-21T14:25:40.553Z,740
2018-10-21T14:26:40.374Z,736
2018-10-21T14:29:20.871Z,732
2018-10-21T14:30:21.444Z,728
2018-10-21T14:31:19.101Z,728
2018-10-21T14:32:18.878Z,724
2018-10-21T14:33:17.460Z,728
2018-10-21T14:34:18.152Z,724
2018-10-21T14:35:18.175Z,716
2018-10-21T14:36:17.995Z,716
2018-10-21T14:37:17.890Z,716
2018-10-21T14:38:17.068Z,708
2018-10-21T14:39:17.296Z,708
2018-10-21T14:40:18.919Z,708
2018-10-21T14:41:17.394Z,704
2018-10-21T14:42:15.954Z,696
2018-10-21T14:43:15.369Z,696
2018-10-21T14:44:12.931Z,696
2018-10-21T14:45:12.415Z,692
2018-10-21T14:46:10.196Z,688
2018-10-21T14:50:58.075Z,672
2018-10-21T14:51:56.556Z,664
2018-10-21T14:52:56.571Z,664
2018-10-21T14:53:55.937Z,660
2018-10-21T14:54:55.388Z,660
2018-10-21T14:55:54.627Z,656
2018-10-21T14:56:53.160Z,652
2018-10-21T14:57:51.829Z,648
2018-10-21T14:58:52.877Z,644
2018-10-21T14:59:50.477Z,644
2018-10-21T15:00:48.990Z,644
2018-10-21T15:01:49.012Z,636